sensor_id;sensor_type;location;lat;lon;timestamp;pressure;altitude;pressure_sealevel;temperature;humidity
69306;BME280;56427;51.580;4.656;2023-12-29T10:37:08;100839.63;;;10.50;89.46
69306;BME280;56427;51.580;4.656;2023-12-29T10:39:54;100845.69;;;10.49;89.94
69306;BME280;56427;51.580;4.656;2023-12-29T10:42:20;100839.66;;;10.48;89.85
69306;BME280;56427;51.580;4.656;2023-12-29T10:44:45;100836.16;;;10.49;89.76
69306;BME280;56427;51.580;4.656;2023-12-29T10:47:11;100833.44;;;10.52;89.92
69306;BME280;56427;51.580;4.656;2023-12-29T10:49:38;100831.69;;;10.53;90.00
69306;BME280;56427;51.580;4.656;2023-12-29T10:52:16;100832.44;;;10.55;90.21
69306;BME280;56427;51.580;4.656;2023-12-29T10:54:42;100834.06;;;10.58;90.07
69306;BME280;56427;51.580;4.656;2023-12-29T10:57:10;100847.50;;;10.66;89.79
69306;BME280;56427;51.580;4.656;2023-12-29T10:59:35;100833.59;;;10.67;89.33
69306;BME280;56427;51.580;4.656;2023-12-29T11:02:01;100832.47;;;10.72;89.30
69306;BME280;56427;51.580;4.656;2023-12-29T11:04:30;100829.66;;;10.77;89.18
69306;BME280;56427;51.580;4.656;2023-12-29T11:06:55;100834.84;;;10.77;89.27
69306;BME280;56427;51.580;4.656;2023-12-29T11:09:28;100830.31;;;10.80;89.35
69306;BME280;56427;51.580;4.656;2023-12-29T11:11:57;100843.16;;;10.84;89.39
69306;BME280;56427;51.580;4.656;2023-12-29T11:14:24;100837.13;;;10.83;89.00
69306;BME280;56427;51.580;4.656;2023-12-29T11:16:51;100841.88;;;10.92;89.35
69306;BME280;56427;51.580;4.656;2023-12-29T11:19:18;100837.47;;;10.94;89.38
69306;BME280;56427;51.580;4.656;2023-12-29T11:21:44;100839.34;;;10.91;89.91
69306;BME280;56427;51.580;4.656;2023-12-29T11:24:10;100836.66;;;10.92;90.00
69306;BME280;56427;51.580;4.656;2023-12-29T11:26:36;100835.22;;;10.87;90.19
69306;BME280;56427;51.580;4.656;2023-12-29T11:29:03;100830.94;;;10.86;90.51
69306;BME280;56427;51.580;4.656;2023-12-29T11:31:30;100837.66;;;10.90;90.51
69306;BME280;56427;51.580;4.656;2023-12-29T11:34:17;100832.94;;;10.98;90.63
69306;BME280;56427;51.580;4.656;2023-12-29T11:36:46;100836.22;;;11.01;90.67
69306;BME280;56427;51.580;4.656;2023-12-29T11:39:24;100828.28;;;11.04;90.32
69306;BME280;56427;51.580;4.656;2023-12-29T11:42:17;100838.03;;;10.99;90.67
69306;BME280;56427;51.580;4.656;2023-12-29T11:44:44;100832.00;;;10.99;91.07
69306;BME280;56427;51.580;4.656;2023-12-29T11:47:34;100825.38;;;10.93;91.44
69306;BME280;56427;51.580;4.656;2023-12-29T11:50:01;100826.91;;;10.97;91.82
69306;BME280;56427;51.580;4.656;2023-12-29T11:52:37;100820.88;;;10.97;91.69
69306;BME280;56427;51.580;4.656;2023-12-29T11:55:10;100825.00;;;11.01;91.43
69306;BME280;56427;51.580;4.656;2023-12-29T11:57:36;100816.00;;;10.91;91.76
69306;BME280;56427;51.580;4.656;2023-12-29T12:00:02;100814.63;;;10.84;92.03
69306;BME280;56427;51.580;4.656;2023-12-29T12:02:30;100823.94;;;10.88;92.36
69306;BME280;56427;51.580;4.656;2023-12-29T12:04:56;100816.47;;;10.82;92.84
69306;BME280;56427;51.580;4.656;2023-12-29T12:09:47;100805.78;;;10.88;92.91
69306;BME280;56427;51.580;4.656;2023-12-29T12:12:43;100794.25;;;10.76;92.78
69306;BME280;56427;51.580;4.656;2023-12-29T12:17:54;100797.19;;;10.68;94.00
69306;BME280;56427;51.580;4.656;2023-12-29T12:20:19;100796.44;;;10.66;95.36
69306;BME280;56427;51.580;4.656;2023-12-29T12:22:45;100794.44;;;10.54;97.80
69306;BME280;56427;51.580;4.656;2023-12-29T12:25:15;100795.75;;;10.45;99.22
69306;BME280;56427;51.580;4.656;2023-12-29T12:27:41;100788.56;;;10.33;99.72
69306;BME280;56427;51.580;4.656;2023-12-29T12:30:07;100779.78;;;10.36;99.97
69306;BME280;56427;51.580;4.656;2023-12-29T12:32:35;100782.38;;;10.36;99.66
69306;BME280;56427;51.580;4.656;2023-12-29T12:35:01;100779.44;;;10.43;99.76
69306;BME280;56427;51.580;4.656;2023-12-29T12:37:28;100770.66;;;10.46;100.00
69306;BME280;56427;51.580;4.656;2023-12-29T12:39:53;100761.19;;;10.45;99.67
69306;BME280;56427;51.580;4.656;2023-12-29T12:42:20;100760.19;;;10.47;100.00
69306;BME280;56427;51.580;4.656;2023-12-29T12:44:56;100762.69;;;10.49;99.91
69306;BME280;56427;51.580;4.656;2023-12-29T12:47:59;100760.94;;;10.49;99.37
69306;BME280;56427;51.580;4.656;2023-12-29T12:50:20;100762.66;;;10.50;99.88
69306;BME280;56427;51.580;4.656;2023-12-29T12:52:45;100767.88;;;10.49;99.73
69306;BME280;56427;51.580;4.656;2023-12-29T12:55:11;100769.72;;;10.47;100.00
69306;BME280;56427;51.580;4.656;2023-12-29T12:57:38;100761.09;;;10.46;100.00
69306;BME280;56427;51.580;4.656;2023-12-29T13:00:04;100761.03;;;10.48;99.70
69306;BME280;56427;51.580;4.656;2023-12-29T13:02:31;100756.47;;;10.53;99.95
69306;BME280;56427;51.580;4.656;2023-12-29T13:04:58;100754.16;;;10.47;99.92
69306;BME280;56427;51.580;4.656;2023-12-29T13:07:23;100751.75;;;10.44;99.66
69306;BME280;56427;51.580;4.656;2023-12-29T13:09:50;100746.78;;;10.39;99.67
69306;BME280;56427;51.580;4.656;2023-12-29T13:12:17;100746.00;;;10.37;99.26
69306;BME280;56427;51.580;4.656;2023-12-29T13:14:43;100741.81;;;10.35;100.00
69306;BME280;56427;51.580;4.656;2023-12-29T13:17:10;100745.44;;;10.31;100.00
69306;BME280;56427;51.580;4.656;2023-12-29T13:19:37;100742.56;;;10.18;100.00
69306;BME280;56427;51.580;4.656;2023-12-29T13:22:09;100743.03;;;10.09;100.00
69306;BME280;56427;51.580;4.656;2023-12-29T13:24:35;100744.16;;;10.03;100.00
69306;BME280;56427;51.580;4.656;2023-12-29T13:27:07;100736.25;;;10.06;100.00
69306;BME280;56427;51.580;4.656;2023-12-29T13:29:35;100728.78;;;10.17;100.00
69306;BME280;56427;51.580;4.656;2023-12-29T13:34:43;100724.88;;;10.27;100.00
69306;BME280;56427;51.580;4.656;2023-12-29T13:37:25;100724.69;;;10.31;100.00
69306;BME280;56427;51.580;4.656;2023-12-29T13:42:45;100725.94;;;10.41;100.00
69306;BME280;56427;51.580;4.656;2023-12-29T13:45:12;100723.22;;;10.44;100.00
69306;BME280;56427;51.580;4.656;2023-12-29T13:47:40;100726.56;;;10.46;100.00
69306;BME280;56427;51.580;4.656;2023-12-29T13:50:08;100735.25;;;10.45;100.00
69306;BME280;56427;51.580;4.656;2023-12-29T13:52:36;100730.06;;;10.45;100.00
69306;BME280;56427;51.580;4.656;2023-12-29T13:55:02;100724.63;;;10.49;100.00
69306;BME280;56427;51.580;4.656;2023-12-29T13:57:34;100736.84;;;10.47;99.45
69306;BME280;56427;51.580;4.656;2023-12-29T14:05:39;100730.75;;;10.48;97.89
69306;BME280;56427;51.580;4.656;2023-12-29T14:08:24;100729.25;;;10.44;98.37
69306;BME280;56427;51.580;4.656;2023-12-29T14:10:50;100734.47;;;10.43;97.75
69306;BME280;56427;51.580;4.656;2023-12-29T14:13:16;100743.16;;;10.42;98.46
69306;BME280;56427;51.580;4.656;2023-12-29T14:15:43;100741.41;;;10.42;97.95
69306;BME280;56427;51.580;4.656;2023-12-29T14:20:38;100740.66;;;10.40;97.84
69306;BME280;56427;51.580;4.656;2023-12-29T14:23:04;100737.94;;;10.43;97.60
69306;BME280;56427;51.580;4.656;2023-12-29T14:25:34;100742.34;;;10.41;97.85
69306;BME280;56427;51.580;4.656;2023-12-29T14:28:02;100737.06;;;10.43;97.95
69306;BME280;56427;51.580;4.656;2023-12-29T14:30:28;100730.38;;;10.39;97.06
69306;BME280;56427;51.580;4.656;2023-12-29T14:32:59;100720.91;;;10.38;97.70
69306;BME280;56427;51.580;4.656;2023-12-29T14:35:25;100720.09;;;10.37;97.82
69306;BME280;56427;51.580;4.656;2023-12-29T14:37:50;100721.97;;;10.34;97.44
69306;BME280;56427;51.580;4.656;2023-12-29T14:40:15;100711.69;;;10.32;97.88
69306;BME280;56427;51.580;4.656;2023-12-29T14:42:41;100702.44;;;10.26;97.84
69306;BME280;56427;51.580;4.656;2023-12-29T14:45:07;100696.69;;;10.20;97.98
69306;BME280;56427;51.580;4.656;2023-12-29T14:47:33;100700.25;;;10.17;98.45
69306;BME280;56427;51.580;4.656;2023-12-29T14:49:59;100700.41;;;10.14;98.77
69306;BME280;56427;51.580;4.656;2023-12-29T14:52:25;100696.38;;;10.09;99.09
69306;BME280;56427;51.580;4.656;2023-12-29T14:54:51;100696.84;;;9.99;99.27
69306;BME280;56427;51.580;4.656;2023-12-29T14:57:16;100684.91;;;9.95;99.10
69306;BME280;56427;51.580;4.656;2023-12-29T14:59:42;100692.34;;;9.84;99.73
69306;BME280;56427;51.580;4.656;2023-12-29T15:02:07;100699.47;;;9.81;99.43
69306;BME280;56427;51.580;4.656;2023-12-29T15:04:34;100701.41;;;9.76;100.00
69306;BME280;56427;51.580;4.656;2023-12-29T15:06:59;100697.34;;;9.70;100.00
69306;BME280;56427;51.580;4.656;2023-12-29T15:09:24;100695.53;;;9.72;100.00
69306;BME280;56427;51.580;4.656;2023-12-29T15:11:50;100692.09;;;9.71;99.84
69306;BME280;56427;51.580;4.656;2023-12-29T15:14:18;100693.78;;;9.72;99.51
69306;BME280;56427;51.580;4.656;2023-12-29T15:16:45;100693.56;;;9.77;99.22
69306;BME280;56427;51.580;4.656;2023-12-29T15:19:11;100686.00;;;9.72;98.99
69306;BME280;56427;51.580;4.656;2023-12-29T15:21:38;100686.00;;;9.72;99.27
69306;BME280;56427;51.580;4.656;2023-12-29T15:24:04;100686.91;;;9.71;99.50
69306;BME280;56427;51.580;4.656;2023-12-29T15:26:30;100689.31;;;9.76;99.59
69306;BME280;56427;51.580;4.656;2023-12-29T15:28:55;100681.63;;;9.75;100.00
69306;BME280;56427;51.580;4.656;2023-12-29T15:31:22;100686.72;;;9.76;100.00
69306;BME280;56427;51.580;4.656;2023-12-29T15:33:47;100687.56;;;9.77;100.00
69306;BME280;56427;51.580;4.656;2023-12-29T15:36:13;100679.03;;;9.75;100.00
69306;BME280;56427;51.580;4.656;2023-12-29T15:38:46;100672.44;;;9.67;100.00
69306;BME280;56427;51.580;4.656;2023-12-29T15:41:11;100680.06;;;9.70;100.00
69306;BME280;56427;51.580;4.656;2023-12-29T15:43:37;100668.72;;;9.73;100.00
69306;BME280;56427;51.580;4.656;2023-12-29T15:46:02;100664.91;;;9.80;100.00
69306;BME280;56427;51.580;4.656;2023-12-29T15:48:28;100659.06;;;9.77;100.00
69306;BME280;56427;51.580;4.656;2023-12-29T15:50:55;100657.22;;;9.79;100.00
69306;BME280;56427;51.580;4.656;2023-12-29T15:53:21;100648.53;;;9.80;100.00
69306;BME280;56427;51.580;4.656;2023-12-29T15:55:46;100646.19;;;9.75;100.00
69306;BME280;56427;51.580;4.656;2023-12-29T15:58:12;100655.91;;;9.70;100.00
69306;BME280;56427;51.580;4.656;2023-12-29T16:00:37;100642.13;;;9.69;100.00
69306;BME280;56427;51.580;4.656;2023-12-29T16:03:03;100651.66;;;9.69;100.00
69306;BME280;56427;51.580;4.656;2023-12-29T16:05:29;100630.94;;;9.69;100.00
69306;BME280;56427;51.580;4.656;2023-12-29T16:07:54;100640.28;;;9.71;100.00
69306;BME280;56427;51.580;4.656;2023-12-29T16:10:20;100638.47;;;9.73;100.00
69306;BME280;56427;51.580;4.656;2023-12-29T16:12:49;100631.19;;;9.82;99.63
69306;BME280;56427;51.580;4.656;2023-12-29T16:15:14;100631.84;;;9.85;98.95
69306;BME280;56427;51.580;4.656;2023-12-29T16:17:40;100634.69;;;9.81;99.48
69306;BME280;56427;51.580;4.656;2023-12-29T16:20:05;100635.44;;;9.83;99.84
69306;BME280;56427;51.580;4.656;2023-12-29T16:22:31;100640.84;;;9.78;100.00
69306;BME280;56427;51.580;4.656;2023-12-29T16:24:56;100637.56;;;9.75;100.00
69306;BME280;56427;51.580;4.656;2023-12-29T16:27:22;100636.72;;;9.74;100.00
69306;BME280;56427;51.580;4.656;2023-12-29T16:29:47;100636.56;;;9.77;100.00
69306;BME280;56427;51.580;4.656;2023-12-29T16:32:19;100645.94;;;9.80;100.00
69306;BME280;56427;51.580;4.656;2023-12-29T16:34:45;100636.38;;;9.82;100.00
69306;BME280;56427;51.580;4.656;2023-12-29T16:37:11;100652.59;;;9.85;100.00
69306;BME280;56427;51.580;4.656;2023-12-29T16:39:39;100647.69;;;9.79;100.00
69306;BME280;56427;51.580;4.656;2023-12-29T16:42:05;100657.50;;;9.72;100.00
69306;BME280;56427;51.580;4.656;2023-12-29T16:44:31;100655.09;;;9.69;100.00
69306;BME280;56427;51.580;4.656;2023-12-29T16:46:56;100675.47;;;9.58;100.00
69306;BME280;56427;51.580;4.656;2023-12-29T16:49:21;100662.88;;;9.32;100.00
69306;BME280;56427;51.580;4.656;2023-12-29T16:51:47;100686.25;;;9.11;100.00
69306;BME280;56427;51.580;4.656;2023-12-29T16:54:12;100641.88;;;8.81;100.00
69306;BME280;56427;51.580;4.656;2023-12-29T16:56:38;100667.34;;;9.09;100.00
69306;BME280;56427;51.580;4.656;2023-12-29T16:59:03;100652.16;;;9.39;99.75
69306;BME280;56427;51.580;4.656;2023-12-29T17:01:31;100667.34;;;9.47;99.83
69306;BME280;56427;51.580;4.656;2023-12-29T17:03:56;100678.50;;;9.49;100.00
69306;BME280;56427;51.580;4.656;2023-12-29T17:06:22;100677.22;;;9.39;100.00
69306;BME280;56427;51.580;4.656;2023-12-29T17:08:48;100692.00;;;9.37;100.00
69306;BME280;56427;51.580;4.656;2023-12-29T17:11:13;100680.56;;;9.41;100.00
69306;BME280;56427;51.580;4.656;2023-12-29T17:13:38;100666.22;;;9.34;100.00
69306;BME280;56427;51.580;4.656;2023-12-29T17:16:04;100662.72;;;9.35;100.00
69306;BME280;56427;51.580;4.656;2023-12-29T17:18:30;100663.66;;;9.34;100.00
69306;BME280;56427;51.580;4.656;2023-12-29T17:20:55;100671.28;;;9.37;100.00
69306;BME280;56427;51.580;4.656;2023-12-29T17:23:21;100679.44;;;9.28;100.00
69306;BME280;56427;51.580;4.656;2023-12-29T17:25:47;100670.13;;;9.24;100.00
69306;BME280;56427;51.580;4.656;2023-12-29T17:28:12;100690.09;;;9.40;100.00
69306;BME280;56427;51.580;4.656;2023-12-29T17:30:37;100690.44;;;9.33;100.00
69306;BME280;56427;51.580;4.656;2023-12-29T17:33:03;100689.69;;;9.31;100.00
69306;BME280;56427;51.580;4.656;2023-12-29T17:35:28;100698.28;;;9.31;100.00
69306;BME280;56427;51.580;4.656;2023-12-29T17:37:53;100701.84;;;9.29;100.00
69306;BME280;56427;51.580;4.656;2023-12-29T17:40:19;100713.94;;;9.28;100.00
69306;BME280;56427;51.580;4.656;2023-12-29T17:42:44;100717.44;;;9.27;100.00
69306;BME280;56427;51.580;4.656;2023-12-29T17:45:10;100719.28;;;9.25;100.00
69306;BME280;56427;51.580;4.656;2023-12-29T17:47:35;100717.91;;;9.16;100.00
69306;BME280;56427;51.580;4.656;2023-12-29T17:50:01;100729.16;;;9.15;100.00
69306;BME280;56427;51.580;4.656;2023-12-29T17:52:26;100729.66;;;9.24;100.00
69306;BME280;56427;51.580;4.656;2023-12-29T17:54:52;100731.09;;;9.31;100.00
69306;BME280;56427;51.580;4.656;2023-12-29T17:57:17;100729.84;;;9.39;100.00
69306;BME280;56427;51.580;4.656;2023-12-29T17:59:42;100733.53;;;9.34;100.00
69306;BME280;56427;51.580;4.656;2023-12-29T18:02:08;100751.59;;;9.35;100.00
69306;BME280;56427;51.580;4.656;2023-12-29T18:04:33;100743.69;;;9.38;100.00
69306;BME280;56427;51.580;4.656;2023-12-29T18:06:58;100747.41;;;9.33;100.00
69306;BME280;56427;51.580;4.656;2023-12-29T18:09:24;100747.47;;;9.31;100.00
69306;BME280;56427;51.580;4.656;2023-12-29T18:11:50;100751.38;;;9.40;100.00
69306;BME280;56427;51.580;4.656;2023-12-29T18:14:16;100757.75;;;9.33;100.00
69306;BME280;56427;51.580;4.656;2023-12-29T18:16:41;100756.97;;;9.31;100.00
69306;BME280;56427;51.580;4.656;2023-12-29T18:19:07;100778.25;;;9.37;100.00
69306;BME280;56427;51.580;4.656;2023-12-29T18:21:33;100776.50;;;9.38;100.00
69306;BME280;56427;51.580;4.656;2023-12-29T18:24:00;100786.59;;;9.24;100.00
69306;BME280;56427;51.580;4.656;2023-12-29T18:26:26;100798.09;;;9.18;100.00
69306;BME280;56427;51.580;4.656;2023-12-29T18:28:51;100800.97;;;9.10;100.00
69306;BME280;56427;51.580;4.656;2023-12-29T18:31:16;100805.13;;;9.14;100.00
69306;BME280;56427;51.580;4.656;2023-12-29T18:33:44;100809.47;;;9.14;100.00
69306;BME280;56427;51.580;4.656;2023-12-29T18:36:11;100795.97;;;9.07;100.00
69306;BME280;56427;51.580;4.656;2023-12-29T18:38:36;100793.44;;;9.06;100.00
69306;BME280;56427;51.580;4.656;2023-12-29T18:41:06;100800.41;;;9.04;100.00
69306;BME280;56427;51.580;4.656;2023-12-29T18:43:32;100805.47;;;9.07;100.00
69306;BME280;56427;51.580;4.656;2023-12-29T18:46:04;100810.38;;;9.13;100.00
69306;BME280;56427;51.580;4.656;2023-12-29T18:48:30;100793.88;;;9.15;100.00
69306;BME280;56427;51.580;4.656;2023-12-29T18:50:55;100801.06;;;9.09;100.00
69306;BME280;56427;51.580;4.656;2023-12-29T18:53:21;100795.69;;;9.13;100.00
69306;BME280;56427;51.580;4.656;2023-12-29T18:55:46;100798.41;;;9.10;98.54
69306;BME280;56427;51.580;4.656;2023-12-29T18:58:11;100808.97;;;9.06;98.49
69306;BME280;56427;51.580;4.656;2023-12-29T19:00:37;100821.38;;;8.98;99.09
69306;BME280;56427;51.580;4.656;2023-12-29T19:03:03;100819.63;;;8.98;99.90
69306;BME280;56427;51.580;4.656;2023-12-29T19:05:28;100824.59;;;9.03;100.00
69306;BME280;56427;51.580;4.656;2023-12-29T19:07:53;100820.16;;;9.06;100.00
69306;BME280;56427;51.580;4.656;2023-12-29T19:10:20;100818.59;;;9.02;100.00
69306;BME280;56427;51.580;4.656;2023-12-29T19:12:45;100835.72;;;9.05;100.00
69306;BME280;56427;51.580;4.656;2023-12-29T19:15:15;100845.06;;;9.09;100.00
69306;BME280;56427;51.580;4.656;2023-12-29T19:17:41;100836.59;;;9.05;100.00
69306;BME280;56427;51.580;4.656;2023-12-29T19:20:07;100833.94;;;9.07;100.00
69306;BME280;56427;51.580;4.656;2023-12-29T19:22:32;100848.47;;;9.09;100.00
69306;BME280;56427;51.580;4.656;2023-12-29T19:25:04;100843.44;;;9.06;100.00
69306;BME280;56427;51.580;4.656;2023-12-29T19:27:30;100831.78;;;9.16;100.00
69306;BME280;56427;51.580;4.656;2023-12-29T19:29:56;100831.41;;;9.26;100.00
69306;BME280;56427;51.580;4.656;2023-12-29T19:32:21;100830.09;;;9.15;100.00
69306;BME280;56427;51.580;4.656;2023-12-29T19:34:47;100827.66;;;9.12;100.00
69306;BME280;56427;51.580;4.656;2023-12-29T19:37:12;100831.19;;;9.10;100.00
69306;BME280;56427;51.580;4.656;2023-12-29T19:39:37;100843.81;;;9.17;100.00
69306;BME280;56427;51.580;4.656;2023-12-29T19:42:03;100834.38;;;9.16;99.90
69306;BME280;56427;51.580;4.656;2023-12-29T19:44:28;100832.69;;;9.15;99.99
69306;BME280;56427;51.580;4.656;2023-12-29T19:46:54;100842.97;;;9.17;99.59
69306;BME280;56427;51.580;4.656;2023-12-29T19:49:19;100836.84;;;9.19;98.85
69306;BME280;56427;51.580;4.656;2023-12-29T19:51:45;100830.88;;;9.17;98.85
69306;BME280;56427;51.580;4.656;2023-12-29T19:54:10;100825.84;;;9.14;98.84
69306;BME280;56427;51.580;4.656;2023-12-29T19:56:36;100827.50;;;9.15;97.83
69306;BME280;56427;51.580;4.656;2023-12-29T19:59:01;100816.66;;;9.07;98.36
69306;BME280;56427;51.580;4.656;2023-12-29T20:01:27;100826.75;;;9.13;97.33
69306;BME280;56427;51.580;4.656;2023-12-29T20:03:53;100811.75;;;9.01;98.08
69306;BME280;56427;51.580;4.656;2023-12-29T20:06:20;100833.13;;;9.05;97.28
69306;BME280;56427;51.580;4.656;2023-12-29T20:08:47;100832.63;;;8.97;97.51
69306;BME280;56427;51.580;4.656;2023-12-29T20:11:13;100827.00;;;8.87;97.97
69306;BME280;56427;51.580;4.656;2023-12-29T20:13:39;100831.19;;;8.89;97.47
69306;BME280;56427;51.580;4.656;2023-12-29T20:16:04;100836.13;;;8.96;96.51
69306;BME280;56427;51.580;4.656;2023-12-29T20:18:30;100844.38;;;8.83;97.61
69306;BME280;56427;51.580;4.656;2023-12-29T20:20:55;100849.38;;;8.88;96.75
69306;BME280;56427;51.580;4.656;2023-12-29T20:23:21;100860.50;;;8.90;96.46
69306;BME280;56427;51.580;4.656;2023-12-29T20:25:46;100863.06;;;8.90;96.25
69306;BME280;56427;51.580;4.656;2023-12-29T20:28:12;100861.50;;;8.86;96.17
69306;BME280;56427;51.580;4.656;2023-12-29T20:30:40;100867.41;;;8.89;95.33
69306;BME280;56427;51.580;4.656;2023-12-29T20:33:05;100868.50;;;8.84;95.38
69306;BME280;56427;51.580;4.656;2023-12-29T20:35:30;100867.84;;;8.79;95.53
69306;BME280;56427;51.580;4.656;2023-12-29T20:37:56;100860.88;;;8.81;94.74
69306;BME280;56427;51.580;4.656;2023-12-29T20:40:21;100866.47;;;8.70;95.53
69306;BME280;56427;51.580;4.656;2023-12-29T20:42:47;100868.88;;;8.75;95.03
69306;BME280;56427;51.580;4.656;2023-12-29T20:45:14;100864.66;;;8.72;94.87
69306;BME280;56427;51.580;4.656;2023-12-29T20:47:39;100876.94;;;8.67;95.37
69306;BME280;56427;51.580;4.656;2023-12-29T20:50:05;100883.81;;;8.68;95.20
69306;BME280;56427;51.580;4.656;2023-12-29T20:52:31;100886.31;;;8.70;95.14
69306;BME280;56427;51.580;4.656;2023-12-29T20:54:57;100883.84;;;8.67;95.57
69306;BME280;56427;51.580;4.656;2023-12-29T20:57:22;100886.56;;;8.63;95.73
69306;BME280;56427;51.580;4.656;2023-12-29T20:59:49;100890.97;;;8.61;96.30
69306;BME280;56427;51.580;4.656;2023-12-29T21:02:14;100904.06;;;8.57;96.63
69306;BME280;56427;51.580;4.656;2023-12-29T21:04:40;100883.22;;;8.61;96.28
69306;BME280;56427;51.580;4.656;2023-12-29T21:07:05;100891.66;;;8.65;96.22
69306;BME280;56427;51.580;4.656;2023-12-29T21:09:31;100894.75;;;8.75;95.62
69306;BME280;56427;51.580;4.656;2023-12-29T21:11:56;100895.16;;;8.64;96.35
69306;BME280;56427;51.580;4.656;2023-12-29T21:14:21;100905.50;;;8.64;96.21
69306;BME280;56427;51.580;4.656;2023-12-29T21:16:47;100897.69;;;8.65;96.12
69306;BME280;56427;51.580;4.656;2023-12-29T21:19:12;100906.66;;;8.57;96.42
69306;BME280;56427;51.580;4.656;2023-12-29T21:21:38;100904.47;;;8.46;97.43
69306;BME280;56427;51.580;4.656;2023-12-29T21:24:05;100900.06;;;8.48;97.12
69306;BME280;56427;51.580;4.656;2023-12-29T21:26:33;100898.38;;;8.47;97.09
69306;BME280;56427;51.580;4.656;2023-12-29T21:28:59;100893.53;;;8.40;97.39
69306;BME280;56427;51.580;4.656;2023-12-29T21:31:27;100898.34;;;8.49;96.87
69306;BME280;56427;51.580;4.656;2023-12-29T21:33:53;100888.47;;;8.36;97.62
69306;BME280;56427;51.580;4.656;2023-12-29T21:36:22;100893.22;;;8.47;97.38
69306;BME280;56427;51.580;4.656;2023-12-29T21:38:48;100897.63;;;8.45;97.42
69306;BME280;56427;51.580;4.656;2023-12-29T21:41:13;100903.78;;;8.41;97.69
69306;BME280;56427;51.580;4.656;2023-12-29T21:43:40;100898.47;;;8.46;97.39
69306;BME280;56427;51.580;4.656;2023-12-29T21:46:06;100904.63;;;8.42;97.64
69306;BME280;56427;51.580;4.656;2023-12-29T21:48:32;100890.22;;;8.36;97.70
69306;BME280;56427;51.580;4.656;2023-12-29T21:50:58;100906.72;;;8.32;98.03
69306;BME280;56427;51.580;4.656;2023-12-29T21:53:23;100909.88;;;8.40;97.83
69306;BME280;56427;51.580;4.656;2023-12-29T21:55:49;100907.06;;;8.46;97.57
69306;BME280;56427;51.580;4.656;2023-12-29T21:58:14;100913.81;;;8.50;97.56
69306;BME280;56427;51.580;4.656;2023-12-29T22:00:39;100912.00;;;8.52;97.10
69306;BME280;56427;51.580;4.656;2023-12-29T22:03:06;100906.88;;;8.51;96.72
69306;BME280;56427;51.580;4.656;2023-12-29T22:05:31;100919.06;;;8.47;96.89
69306;BME280;56427;51.580;4.656;2023-12-29T22:07:56;100929.00;;;8.36;97.28
69306;BME280;56427;51.580;4.656;2023-12-29T22:10:22;100928.13;;;8.35;97.24
69306;BME280;56427;51.580;4.656;2023-12-29T22:12:47;100931.66;;;8.33;97.61
69306;BME280;56427;51.580;4.656;2023-12-29T22:15:15;100936.75;;;8.34;96.67
69306;BME280;56427;51.580;4.656;2023-12-29T22:17:40;100941.56;;;8.45;95.96
69306;BME280;56427;51.580;4.656;2023-12-29T22:20:06;100935.84;;;8.37;96.17
69306;BME280;56427;51.580;4.656;2023-12-29T22:22:32;100947.88;;;8.38;95.65
69306;BME280;56427;51.580;4.656;2023-12-29T22:24:57;100951.66;;;8.28;95.67
69306;BME280;56427;51.580;4.656;2023-12-29T22:27:23;100958.00;;;8.19;95.66
69306;BME280;56427;51.580;4.656;2023-12-29T22:29:49;100952.00;;;8.19;95.57
69306;BME280;56427;51.580;4.656;2023-12-29T22:32:14;100963.88;;;8.23;94.95
69306;BME280;56427;51.580;4.656;2023-12-29T22:34:41;100967.97;;;8.30;94.13
69306;BME280;56427;51.580;4.656;2023-12-29T22:37:07;100959.13;;;8.37;93.39
69306;BME280;56427;51.580;4.656;2023-12-29T22:39:32;100967.28;;;8.25;94.04
69306;BME280;56427;51.580;4.656;2023-12-29T22:41:57;100968.34;;;8.19;94.20
69306;BME280;56427;51.580;4.656;2023-12-29T22:44:23;100969.06;;;8.23;94.19
69306;BME280;56427;51.580;4.656;2023-12-29T22:46:49;100972.47;;;8.23;93.95
69306;BME280;56427;51.580;4.656;2023-12-29T22:49:14;100972.75;;;8.17;94.42
69306;BME280;56427;51.580;4.656;2023-12-29T22:51:39;100976.16;;;8.18;94.07
69306;BME280;56427;51.580;4.656;2023-12-29T22:54:05;100976.16;;;8.18;94.03
69306;BME280;56427;51.580;4.656;2023-12-29T22:56:31;100981.56;;;8.11;94.08
69306;BME280;56427;51.580;4.656;2023-12-29T22:58:56;100993.72;;;8.08;94.47
69306;BME280;56427;51.580;4.656;2023-12-29T23:01:22;100992.03;;;8.07;94.39
69306;BME280;56427;51.580;4.656;2023-12-29T23:03:48;100994.50;;;8.10;94.18
69306;BME280;56427;51.580;4.656;2023-12-29T23:06:14;100996.16;;;8.13;94.42
69306;BME280;56427;51.580;4.656;2023-12-29T23:08:39;100997.28;;;8.04;94.65
69306;BME280;56427;51.580;4.656;2023-12-29T23:11:05;101003.44;;;8.01;94.84
69306;BME280;56427;51.580;4.656;2023-12-29T23:13:30;101009.50;;;8.00;94.72
69306;BME280;56427;51.580;4.656;2023-12-29T23:15:56;100990.09;;;7.89;95.15
69306;BME280;56427;51.580;4.656;2023-12-29T23:18:21;101001.81;;;7.99;94.82
69306;BME280;56427;51.580;4.656;2023-12-29T23:20:46;101008.72;;;7.98;94.37
69306;BME280;56427;51.580;4.656;2023-12-29T23:23:12;101011.38;;;7.95;94.62
69306;BME280;56427;51.580;4.656;2023-12-29T23:25:38;101022.63;;;7.94;94.66
69306;BME280;56427;51.580;4.656;2023-12-29T23:28:03;101018.66;;;7.84;95.04
69306;BME280;56427;51.580;4.656;2023-12-29T23:30:29;101022.13;;;7.83;95.02
69306;BME280;56427;51.580;4.656;2023-12-29T23:32:54;101022.25;;;7.80;95.31
69306;BME280;56427;51.580;4.656;2023-12-29T23:35:20;101018.66;;;7.84;94.60
69306;BME280;56427;51.580;4.656;2023-12-29T23:37:46;101023.13;;;7.79;95.13
69306;BME280;56427;51.580;4.656;2023-12-29T23:40:11;101015.50;;;7.76;95.03
69306;BME280;56427;51.580;4.656;2023-12-29T23:42:37;101024.41;;;7.67;95.59
69306;BME280;56427;51.580;4.656;2023-12-29T23:45:03;101024.34;;;7.69;95.68